Latest Weather Observations for Katanning RS

IDW60801

Issued at 9:33 am WST Saturday 2 July 2016 (issued every 30 minutes, with the page automatically refreshed every 10 minutes)

About weather observations | Map of weather stations | Latest weather observations for WA | Other Formats
Station Details ID: 010916 Name: KATANNING Lat: -33.69 Lon: 117.61 Height: 320.0 m
Data from the previous 72 hours. | See also: Recent months at Katanning RS
Date/Time
WST
Temp
°C
App
Temp
°C
Dew
Point
°C
Rel
Hum
%
Delta-T
°C
Wind Press
QNH
hPa
Press
MSL
hPa
Rain since
9am
mm
Dir  Spd
km/h
Gust
km/h
Spd
kts
Gust
kts
02/09:30am 9.5 8.7 6.6 82 1.4 CALM 0 4 0 2 1025.9 1026.1 0.0
02/09:00am 7.6 6.7 5.9 89 0.8 CALM 0 0 0 0 1025.9 1026.1 0.2
02/08:30am 5.8 4.6 4.4 91 0.6 CALM 0 0 0 0 1025.9 1026.1 0.2
02/08:00am 4.3 2.8 3.0 91 0.5 CALM 0 4 0 2 1025.8 1026.0 0.2
02/07:30am 3.5 1.1 2.2 91 0.5 N 4 4 2 2 1025.8 1026.0 0.0
02/07:00am 2.0 0.1 0.4 89 0.6 CALM 0 0 0 0 1025.8 1026.0 0.0
02/06:30am 3.1 1.4 1.6 90 0.6 CALM 0 0 0 0 1025.8 1026.0 0.0
02/06:00am 2.6 0.0 1.1 90 0.6 N 4 4 2 2 1025.7 1025.9 0.0
02/05:30am 2.6 0.8 1.0 89 0.6 CALM 0 0 0 0 1025.7 1025.9 0.0
02/05:00am 2.6 0.7 0.8 88 0.7 CALM 0 0 0 0 1025.7 1025.9 0.0
02/04:30am 3.7 2.0 1.9 88 0.7 CALM 0 0 0 0 1025.9 1026.1 0.0
02/04:00am 4.4 2.8 2.6 88 0.7 CALM 0 0 0 0 1026.0 1026.2 0.0
02/03:30am 4.3 2.7 2.3 87 0.8 CALM 0 0 0 0 1026.1 1026.3 0.0
02/03:00am 4.1 2.4 2.0 86 0.8 CALM 0 0 0 0 1026.1 1026.3 0.0
02/02:30am 5.5 4.1 3.5 87 0.9 CALM 0 0 0 0 1026.2 1026.4 0.0
02/02:00am 5.2 3.0 3.1 86 0.9 NNW 4 6 2 3 1026.3 1026.5 0.0
02/01:30am 5.5 3.3 3.3 86 0.9 N 4 6 2 3 1026.2 1026.4 0.0
02/01:00am 5.8 3.3 3.6 86 0.9 N 6 7 3 4 1026.3 1026.5 0.0
02/12:30am 5.2 2.4 2.9 85 1.0 NNW 7 7 4 4 1026.6 1026.8 0.0
02/12:00am 5.8 4.4 3.3 84 1.1 CALM 0 0 0 0 1026.8 1027.0 0.0
 
Date/Time
WST
Temp
°C
App
Temp
°C
Dew
Point
°C
Rel
Hum
%
Delta-T
°C
Wind Press
QNH
hPa
Press
MSL
hPa
Rain since
9am
mm
Dir  Spd
km/h
Gust
km/h
Spd
kts
Gust
kts
01/11:30pm 6.5 5.1 3.7 82 1.2 CALM 0 0 0 0 1026.9 1027.1 0.0
01/11:00pm 7.1 5.8 3.9 80 1.4 CALM 0 0 0 0 1027.1 1027.4 0.0
01/10:30pm 7.7 6.1 4.7 81 1.3 N 2 4 1 2 1027.1 1027.4 0.0
01/10:00pm 6.7 5.3 3.5 80 1.4 CALM 0 0 0 0 1027.3 1027.6 0.0
01/09:30pm 8.5 6.1 4.3 75 1.9 NNW 6 6 3 3 1027.2 1027.5 0.0
01/09:00pm 8.6 6.2 4.4 75 1.9 NNW 6 7 3 4 1027.2 1027.5 0.0
01/08:30pm 8.9 6.7 5.1 77 1.7 NNW 6 7 3 4 1027.2 1027.5 0.0
01/08:00pm 9.1 6.9 5.1 76 1.8 NNW 6 6 3 3 1027.2 1027.5 0.0
01/07:30pm 9.9 7.7 5.3 73 2.1 NNW 6 6 3 3 1027.0 1027.2 0.0
01/07:00pm 9.7 7.3 4.5 70 2.3 NNW 6 6 3 3 1026.8 1027.0 0.0
01/06:30pm 10.4 8.1 5.0 69 2.5 NW 6 6 3 3 1026.7 1026.9 0.0
01/06:00pm 11.1 9.3 5.6 69 2.6 NNW 4 6 2 3 1026.5 1026.7 0.0
01/05:30pm 11.3 9.5 5.4 67 2.8 NNW 4 6 2 3 1026.1 1026.3 0.0
01/05:00pm 11.9 10.2 5.8 66 2.9 NNW 4 6 2 3 1026.1 1026.3 0.0
01/04:30pm 12.9 10.8 6.0 63 3.3 NW 6 7 3 4 1026.0 1026.2 0.0
01/04:00pm 14.5 12.5 6.3 58 4.0 WNW 6 11 3 6 1025.9 1026.1 0.0
01/03:30pm 14.8 12.8 6.4 57 4.1 WNW 6 11 3 6 1026.0 1026.2 0.0
01/03:00pm 14.9 12.7 6.0 55 4.3 W 7 13 4 7 1025.9 1026.1 0.0
01/02:30pm 15.0 12.4 6.0 55 4.4 WNW 9 17 5 9 1026.1 1026.3 0.0
01/02:00pm 14.5 11.5 6.1 57 4.1 WNW 11 17 6 9 1026.3 1026.5 0.0
01/01:30pm 14.9 12.0 6.7 58 4.1 NW 11 20 6 11 1026.4 1026.6 0.0
01/01:00pm 14.4 11.8 6.3 58 3.9 NW 9 15 5 8 1026.7 1026.9 0.0
01/12:30pm 14.4 11.9 6.7 60 3.8 NW 9 15 5 8 1027.2 1027.5 0.0
01/12:00pm 13.9 10.9 5.8 58 3.9 NW 11 17 6 9 1027.5 1027.8 0.0
01/11:30am 13.5 9.8 6.4 62 3.5 NNW 15 20 8 11 1028.0 1028.3 0.0
01/11:00am 13.0 9.0 6.6 65 3.1 NNW 17 20 9 11 1028.4 1028.7 0.0
01/10:30am 12.5 8.5 6.5 67 2.9 NW 17 20 9 11 1028.5 1028.8 0.0
01/10:00am 11.9 8.6 6.2 68 2.7 NW 13 17 7 9 1028.9 1029.1 0.0
01/09:30am 11.5 8.9 6.0 69 2.6 NW 9 13 5 7 1028.6 1028.9 0.0
01/09:00am 10.2 7.6 6.0 75 2.0 NNW 9 11 5 6 1028.5 1028.8 0.0
01/08:30am 9.0 6.6 5.4 78 1.7 NW 7 9 4 5 1028.2 1028.5 0.0
01/08:00am 7.2 4.7 4.7 84 1.1 NW 7 9 4 5 1027.9 1028.2 0.0
01/07:30am 6.3 3.3 4.0 85 1.0 NW 9 11 5 6 1027.7 1027.8 0.0
01/07:00am 6.0 3.3 3.5 84 1.1 NW 7 9 4 5 1027.5 1027.6 0.0
01/06:30am 5.8 2.6 3.3 84 1.1 NW 9 11 5 6 1027.4 1027.5 0.0
01/06:00am 6.3 3.3 4.1 86 1.0 NNW 9 11 5 6 1027.1 1027.2 0.0
01/05:30am 6.7 4.1 4.4 85 1.0 NW 7 11 4 6 1027.1 1027.2 0.0
01/05:00am 7.3 4.4 4.6 83 1.2 NW 9 13 5 7 1027.0 1027.1 0.0
01/04:30am 8.1 5.4 5.4 83 1.2 NW 9 13 5 7 1026.8 1026.9 0.0
01/04:00am 8.4 5.8 5.9 84 1.1 WNW 9 13 5 7 1026.8 1026.9 0.0
01/03:30am 8.7 6.1 6.0 83 1.3 NW 9 11 5 6 1026.9 1027.0 0.0
01/03:00am 8.8 6.5 5.9 82 1.3 NW 7 11 4 6 1026.9 1027.0 0.0
01/02:30am 9.2 7.0 6.1 81 1.5 NW 7 9 4 5 1026.8 1026.9 0.0
01/02:00am 10.1 7.7 6.8 80 1.6 NW 9 13 5 7 1026.9 1027.0 0.0
01/01:30am 10.3 8.2 6.8 79 1.7 WNW 7 9 4 5 1026.8 1026.9 0.0
01/01:00am 10.8 8.8 6.9 77 1.9 WNW 7 11 4 6 1026.8 1026.9 0.0
01/12:30am 11.0 9.0 7.1 77 1.9 WNW 7 11 4 6 1027.0 1027.1 0.0
01/12:00am 11.1 9.1 7.0 76 2.0 NW 7 9 4 5 1027.0 1027.1 0.0
 
Date/Time
WST
Temp
°C
App
Temp
°C
Dew
Point
°C
Rel
Hum
%
Delta-T
°C
Wind Press
QNH
hPa
Press
MSL
hPa
Rain since
9am
mm
Dir  Spd
km/h
Gust
km/h
Spd
kts
Gust
kts
30/11:30pm 11.3 9.2 6.8 74 2.2 WNW 7 11 4 6 1027.1 1027.2 0.0
30/11:00pm 11.4 9.4 6.9 74 2.2 NW 7 11 4 6 1027.3 1027.4 0.0
30/10:30pm 11.4 8.9 6.7 73 2.3 NW 9 11 5 6 1027.2 1027.3 0.0
30/10:00pm 11.5 9.4 6.8 73 2.3 WNW 7 11 4 6 1027.1 1027.2 0.0
30/09:30pm 11.9 9.4 6.6 70 2.6 WNW 9 15 5 8 1027.3 1027.4 0.0
30/09:00pm 11.6 8.7 6.7 72 2.4 NW 11 13 6 7 1027.1 1027.2 0.0
30/08:30pm 11.8 8.9 6.7 71 2.5 WNW 11 15 6 8 1027.0 1027.1 0.0
30/08:00pm 11.4 9.3 6.7 73 2.3 WNW 7 9 4 5 1026.7 1026.8 0.0
30/07:30pm 11.4 9.1 7.3 76 2.0 NNW 9 13 5 7 1026.4 1026.5 0.0
30/07:00pm 11.9 10.0 7.4 74 2.2 NW 7 9 4 5 1026.3 1026.4 0.0
30/06:30pm 11.8 9.6 7.7 76 2.0 NNW 9 13 5 7 1026.0 1026.1 0.0
30/06:00pm 12.0 10.2 7.9 76 2.0 NNW 7 11 4 6 1025.7 1025.8 0.0
30/05:30pm 12.5 10.9 7.8 73 2.3 NW 6 9 3 5 1025.2 1025.3 0.0
30/05:00pm 12.8 11.6 8.1 73 2.3 WNW 4 7 2 4 1025.0 1025.1 0.0
30/04:30pm 12.9 11.3 7.8 71 2.5 NW 6 7 3 4 1024.7 1024.8 0.0
30/04:00pm 13.3 11.5 8.0 70 2.7 NW 7 11 4 6 1024.5 1024.6 0.0
30/03:30pm 13.3 11.4 7.7 69 2.8 WNW 7 9 4 5 1024.4 1024.5 0.0
30/03:00pm 13.5 10.8 7.5 67 3.0 WNW 11 15 6 8 1024.3 1024.4 0.0
30/02:30pm 13.6 11.3 7.6 67 3.0 W 9 13 5 7 1023.9 1024.0 0.0
30/02:00pm 13.7 11.5 7.7 67 3.0 WNW 9 13 5 7 1024.1 1024.2 0.0
30/01:30pm 13.7 10.7 7.5 66 3.1 WNW 13 20 7 11 1024.2 1024.3 0.0
30/01:00pm 13.6 9.6 6.7 63 3.4 WNW 17 22 9 12 1024.5 1024.6 0.0
30/12:30pm 13.7 10.7 7.5 66 3.1 W 13 20 7 11 1025.1 1025.2 0.0
30/12:00pm 13.5 10.1 7.7 68 2.9 W 15 22 8 12 1025.7 1025.8 0.0
30/11:30am 12.9 9.8 7.1 68 2.9 W 13 19 7 10 1026.0 1026.1 0.0
30/11:00am 12.3 9.5 7.0 70 2.6 W 11 17 6 9 1026.3 1026.4 0.0
30/10:30am 12.0 9.5 6.5 69 2.7 NW 9 13 5 7 1026.4 1026.5 0.0
30/10:00am 10.9 9.0 6.6 75 2.0 WNW 6 11 3 6 1026.5 1026.6 0.0
30/09:30am 10.2 8.0 6.2 76 1.9 WNW 7 11 4 6 1026.4 1026.5 0.0
30/09:00am 9.4 7.1 5.9 79 1.6 WNW 7 13 4 7 1026.2 1026.3 1.2
30/08:30am 8.6 6.3 5.7 82 1.3 WNW 7 9 4 5 1026.1 1026.2 1.2
30/08:00am 8.1 5.4 5.4 83 1.2 WNW 9 11 5 6 1025.9 1026.0 1.2
30/07:30am 7.8 5.0 5.3 84 1.1 WNW 9 11 5 6 1025.6 1025.7 1.2
30/07:00am 7.6 4.8 5.2 85 1.1 WNW 9 13 5 7 1025.2 1025.3 1.2
30/06:30am 6.5 3.5 4.2 85 1.0 W 9 11 5 6 1024.8 1024.9 1.2
30/06:00am 7.0 4.0 4.3 83 1.2 WNW 9 9 5 5 1024.6 1024.7 1.2
30/05:30am 8.0 5.7 5.5 84 1.1 W 7 11 4 6 1024.4 1024.5 1.2
30/05:00am 8.0 5.3 5.8 86 1.0 W 9 13 5 7 1024.3 1024.4 1.2
30/04:30am 7.5 4.4 5.5 87 0.9 WNW 11 13 6 7 1024.1 1024.2 1.2
30/04:00am 7.5 4.7 5.3 86 1.0 WNW 9 13 5 7 1024.0 1024.1 1.2
30/03:30am 8.1 4.8 6.2 88 0.9 WNW 13 15 7 8 1024.2 1024.3 1.2
30/03:00am 7.8 4.4 6.1 89 0.8 WNW 13 17 7 9 1024.3 1024.4 1.2
30/02:30am 7.6 4.9 5.7 88 0.9 WNW 9 13 5 7 1024.2 1024.3 1.2
30/02:00am 7.7 5.0 5.8 88 0.9 WNW 9 13 5 7 1024.2 1024.3 1.2
30/01:30am 8.2 5.6 6.3 88 0.9 NW 9 11 5 6 1024.1 1024.2 1.2
30/01:00am 7.8 5.5 5.8 87 0.9 WNW 7 9 4 5 1023.8 1023.9 1.2
30/12:30am 7.7 5.0 5.7 87 0.9 WNW 9 13 5 7 1023.6 1023.7 1.2
30/12:00am 7.3 4.6 5.4 88 0.9 NW 9 13 5 7 1023.6 1023.7 1.0
 
Date/Time
WST
Temp
°C
App
Temp
°C
Dew
Point
°C
Rel
Hum
%
Delta-T
°C
Wind Press
QNH
hPa
Press
MSL
hPa
Rain since
9am
mm
Dir  Spd
km/h
Gust
km/h
Spd
kts
Gust
kts
29/11:30pm 7.1 4.3 5.1 87 0.9 WNW 9 11 5 6 1023.5 1023.6 1.0
29/11:00pm 6.7 4.2 4.7 87 0.9 WNW 7 9 4 5 1023.5 1023.6 1.0
29/10:30pm 6.6 3.7 4.4 86 1.0 W 9 9 5 5 1023.3 1023.4 1.0
29/10:00pm 6.7 3.8 4.5 86 1.0 W 9 11 5 6 1023.2 1023.3 1.0
29/09:30pm 7.1 4.6 4.9 86 1.0 W 7 9 4 5 1023.0 1023.1 1.0
29/09:00pm 7.4 4.6 5.2 86 1.0 WSW 9 11 5 6 1022.9 1023.0 1.0
29/08:30pm 7.7 5.0 5.5 86 1.0 WSW 9 11 5 6 1022.6 1022.6 1.0
29/08:00pm 8.0 5.3 5.8 86 1.0 WSW 9 9 5 5 1022.1 1022.2 1.0
29/07:30pm 8.5 6.4 6.5 87 0.9 W 7 9 4 5 1021.7 1021.8 1.0
29/07:00pm 8.8 6.9 6.6 86 1.0 WNW 6 6 3 3 1021.4 1021.5 1.0
29/06:30pm 9.4 8.0 7.2 86 1.1 WSW 4 6 2 3 1021.0 1021.1 1.0
29/06:00pm 9.5 8.8 6.9 84 1.2 CALM 0 4 0 2 1020.5 1020.6 1.0
29/05:30pm 10.5 8.9 8.1 85 1.2 SW 6 7 3 4 1020.1 1020.1 1.0
29/05:00pm 11.0 9.3 8.2 83 1.4 SW 7 9 4 5 1019.9 1019.9 1.0
29/04:30pm 11.7 10.2 9.1 84 1.3 WSW 7 11 4 6 1019.5 1019.5 1.0
29/04:00pm 11.9 9.6 8.9 82 1.5 SW 11 15 6 8 1019.2 1019.2 1.0
29/03:30pm 11.5 7.3 8.4 81 1.6 SW 20 33 11 18 1018.5 1018.6 1.0
29/03:00pm 12.9 8.9 8.4 74 2.3 WSW 19 32 10 17 1018.0 1018.1 0.2
29/02:30pm 13.6 10.1 7.4 66 3.1 W 15 22 8 12 1017.4 1017.4 0.0
29/02:00pm 14.6 10.8 7.6 63 3.5 W 17 22 9 12 1017.1 1017.1 0.0
29/01:30pm 14.5 9.3 7.3 62 3.6 W 24 32 13 17 1017.3 1017.3 0.0
29/01:00pm 13.8 10.1 8.0 68 2.9 WSW 17 28 9 15 1017.1 1017.1 0.0
29/12:30pm 13.9 10.3 8.3 69 2.8 WSW 17 26 9 14 1017.2 1017.2 0.0
29/12:00pm 14.1 10.2 8.7 70 2.8 WSW 19 24 10 13 1017.1 1017.1 0.0
29/11:30am 12.8 8.7 7.9 72 2.5 WSW 19 26 10 14 1017.1 1017.1 0.0
29/11:00am 12.7 8.9 9.2 79 1.8 WSW 19 26 10 14 1016.9 1016.9 0.0
29/10:30am 11.7 7.7 8.4 80 1.7 WSW 19 28 10 15 1016.9 1016.9 0.0
29/10:00am 11.8 8.0 9.0 83 1.4 WSW 19 26 10 14 1016.8 1016.8 0.0

Other Formats:

Comma delimited format used in spreadsheet applications
http://www.bom.gov.au/fwo/IDW60801/IDW60801.94641.axf

JavaScript Object Notation format (JSON) in row-major order
http://www.bom.gov.au/fwo/IDW60801/IDW60801.94641.json